sensor_id;sensor_type;location;lat;lon;timestamp;temperature;humidity
83808;SHT31;73824;40.292;17.998;2024-03-02T00:00:05;12.38;86.66
83808;SHT31;73824;40.292;17.998;2024-03-02T00:02:43;12.45;86.94
83808;SHT31;73824;40.292;17.998;2024-03-02T00:05:14;12.41;86.86
83808;SHT31;73824;40.292;17.998;2024-03-02T00:07:41;12.48;86.71
83808;SHT31;73824;40.292;17.998;2024-03-02T00:10:12;12.53;86.34
83808;SHT31;73824;40.292;17.998;2024-03-02T00:12:39;12.55;86.51
83808;SHT31;73824;40.292;17.998;2024-03-02T00:17:56;12.54;86.49
83808;SHT31;73824;40.292;17.998;2024-03-02T00:20:22;12.51;86.77
83808;SHT31;73824;40.292;17.998;2024-03-02T00:22:49;12.53;86.84
83808;SHT31;73824;40.292;17.998;2024-03-02T00:25:16;12.53;86.96
83808;SHT31;73824;40.292;17.998;2024-03-02T00:27:41;12.45;87.03
83808;SHT31;73824;40.292;17.998;2024-03-02T00:32:56;12.51;87.17
83808;SHT31;73824;40.292;17.998;2024-03-02T00:35:23;12.51;87.17
83808;SHT31;73824;40.292;17.998;2024-03-02T00:37:48;12.47;87.12
83808;SHT31;73824;40.292;17.998;2024-03-02T00:40:17;12.51;87.07
83808;SHT31;73824;40.292;17.998;2024-03-02T00:42:42;12.51;87.02
83808;SHT31;73824;40.292;17.998;2024-03-02T00:45:08;12.53;87.07
83808;SHT31;73824;40.292;17.998;2024-03-02T00:47:38;12.50;87.04
83808;SHT31;73824;40.292;17.998;2024-03-02T00:50:05;12.45;87.14
83808;SHT31;73824;40.292;17.998;2024-03-02T00:52:31;12.48;87.13
83808;SHT31;73824;40.292;17.998;2024-03-02T00:55:00;12.40;87.35
83808;SHT31;73824;40.292;17.998;2024-03-02T00:57:29;12.41;87.48
83808;SHT31;73824;40.292;17.998;2024-03-02T00:59:57;12.41;87.65
83808;SHT31;73824;40.292;17.998;2024-03-02T01:02:22;12.41;87.57
83808;SHT31;73824;40.292;17.998;2024-03-02T01:04:48;12.41;87.72
83808;SHT31;73824;40.292;17.998;2024-03-02T01:07:13;12.51;87.66
83808;SHT31;73824;40.292;17.998;2024-03-02T01:09:39;12.54;87.42
83808;SHT31;73824;40.292;17.998;2024-03-02T01:12:04;12.50;87.58
83808;SHT31;73824;40.292;17.998;2024-03-02T01:14:30;12.53;87.55
83808;SHT31;73824;40.292;17.998;2024-03-02T01:16:55;12.61;87.45
83808;SHT31;73824;40.292;17.998;2024-03-02T01:19:21;12.57;87.43
83808;SHT31;73824;40.292;17.998;2024-03-02T01:21:46;12.50;87.58
83808;SHT31;73824;40.292;17.998;2024-03-02T01:24:12;12.53;87.57
83808;SHT31;73824;40.292;17.998;2024-03-02T01:26:38;12.57;87.59
83808;SHT31;73824;40.292;17.998;2024-03-02T01:29:04;12.57;87.50
83808;SHT31;73824;40.292;17.998;2024-03-02T01:31:29;12.57;87.58
83808;SHT31;73824;40.292;17.998;2024-03-02T01:33:54;12.55;87.56
83808;SHT31;73824;40.292;17.998;2024-03-02T01:36:20;12.57;87.54
83808;SHT31;73824;40.292;17.998;2024-03-02T01:38:46;12.55;87.47
83808;SHT31;73824;40.292;17.998;2024-03-02T01:41:11;12.61;87.45
83808;SHT31;73824;40.292;17.998;2024-03-02T01:43:37;12.62;87.28
83808;SHT31;73824;40.292;17.998;2024-03-02T01:46:02;12.65;87.07
83808;SHT31;73824;40.292;17.998;2024-03-02T01:48:28;12.60;87.22
83808;SHT31;73824;40.292;17.998;2024-03-02T01:50:53;12.61;87.29
83808;SHT31;73824;40.292;17.998;2024-03-02T01:53:19;12.62;87.06
83808;SHT31;73824;40.292;17.998;2024-03-02T01:55:45;12.61;87.33
83808;SHT31;73824;40.292;17.998;2024-03-02T01:58:10;12.54;87.52
83808;SHT31;73824;40.292;17.998;2024-03-02T02:00:36;12.61;87.24
83808;SHT31;73824;40.292;17.998;2024-03-02T02:03:02;12.48;87.44
83808;SHT31;73824;40.292;17.998;2024-03-02T02:05:28;12.40;87.98
83808;SHT31;73824;40.292;17.998;2024-03-02T02:07:53;12.48;87.67
83808;SHT31;73824;40.292;17.998;2024-03-02T02:10:19;12.44;87.74
83808;SHT31;73824;40.292;17.998;2024-03-02T02:12:44;12.37;87.79
83808;SHT31;73824;40.292;17.998;2024-03-02T02:15:26;12.33;88.10
83808;SHT31;73824;40.292;17.998;2024-03-02T02:17:53;12.47;87.47
83808;SHT31;73824;40.292;17.998;2024-03-02T02:20:19;12.47;87.22
83808;SHT31;73824;40.292;17.998;2024-03-02T02:23:01;12.30;87.74
83808;SHT31;73824;40.292;17.998;2024-03-02T02:25:27;12.24;88.12
83808;SHT31;73824;40.292;17.998;2024-03-02T02:27:53;12.19;88.34
83808;SHT31;73824;40.292;17.998;2024-03-02T02:30:25;12.16;88.52
83808;SHT31;73824;40.292;17.998;2024-03-02T02:32:50;12.20;88.51
83808;SHT31;73824;40.292;17.998;2024-03-02T02:35:16;12.14;88.46
83808;SHT31;73824;40.292;17.998;2024-03-02T02:37:42;12.23;88.43
83808;SHT31;73824;40.292;17.998;2024-03-02T02:40:09;12.20;88.23
83808;SHT31;73824;40.292;17.998;2024-03-02T02:42:34;12.22;88.18
83808;SHT31;73824;40.292;17.998;2024-03-02T02:45:00;12.30;87.84
83808;SHT31;73824;40.292;17.998;2024-03-02T02:47:25;12.32;87.56
83808;SHT31;73824;40.292;17.998;2024-03-02T02:49:51;12.38;87.33
83808;SHT31;73824;40.292;17.998;2024-03-02T02:52:17;12.34;87.52
83808;SHT31;73824;40.292;17.998;2024-03-02T02:54:43;12.38;87.18
83808;SHT31;73824;40.292;17.998;2024-03-02T02:57:09;12.37;87.29
83808;SHT31;73824;40.292;17.998;2024-03-02T02:59:35;12.29;87.39
83808;SHT31;73824;40.292;17.998;2024-03-02T03:02:01;12.29;87.60
83808;SHT31;73824;40.292;17.998;2024-03-02T03:04:26;12.22;87.62
83808;SHT31;73824;40.292;17.998;2024-03-02T03:06:52;12.05;87.98
83808;SHT31;73824;40.292;17.998;2024-03-02T03:09:17;12.06;88.17
83808;SHT31;73824;40.292;17.998;2024-03-02T03:11:43;11.96;88.60
83808;SHT31;73824;40.292;17.998;2024-03-02T03:14:08;11.93;88.70
83808;SHT31;73824;40.292;17.998;2024-03-02T03:16:34;11.81;88.92
83808;SHT31;73824;40.292;17.998;2024-03-02T03:18:59;11.71;89.24
83808;SHT31;73824;40.292;17.998;2024-03-02T03:21:25;11.65;89.49
83808;SHT31;73824;40.292;17.998;2024-03-02T03:23:50;11.57;89.79
83808;SHT31;73824;40.292;17.998;2024-03-02T03:26:16;11.62;89.85
83808;SHT31;73824;40.292;17.998;2024-03-02T03:28:41;11.65;89.69
83808;SHT31;73824;40.292;17.998;2024-03-02T03:31:07;11.72;89.43
83808;SHT31;73824;40.292;17.998;2024-03-02T03:33:32;11.76;89.37
83808;SHT31;73824;40.292;17.998;2024-03-02T03:35:58;11.81;89.07
83808;SHT31;73824;40.292;17.998;2024-03-02T03:38:23;11.83;89.11
83808;SHT31;73824;40.292;17.998;2024-03-02T03:40:49;11.81;89.04
83808;SHT31;73824;40.292;17.998;2024-03-02T03:43:14;11.61;89.25
83808;SHT31;73824;40.292;17.998;2024-03-02T03:45:40;11.57;89.76
83808;SHT31;73824;40.292;17.998;2024-03-02T03:48:06;11.69;89.47
83808;SHT31;73824;40.292;17.998;2024-03-02T03:50:32;11.64;89.66
83808;SHT31;73824;40.292;17.998;2024-03-02T03:52:57;11.62;89.54
83808;SHT31;73824;40.292;17.998;2024-03-02T03:55:23;11.65;89.64
83808;SHT31;73824;40.292;17.998;2024-03-02T03:57:48;11.58;89.56
83808;SHT31;73824;40.292;17.998;2024-03-02T04:00:14;11.68;89.19
83808;SHT31;73824;40.292;17.998;2024-03-02T04:02:39;11.71;89.21
83808;SHT31;73824;40.292;17.998;2024-03-02T04:05:05;11.74;89.07
83808;SHT31;73824;40.292;17.998;2024-03-02T04:07:36;11.72;89.05
83808;SHT31;73824;40.292;17.998;2024-03-02T04:10:07;11.68;88.97
83808;SHT31;73824;40.292;17.998;2024-03-02T04:12:33;11.54;89.33
83808;SHT31;73824;40.292;17.998;2024-03-02T04:15:03;11.61;89.27
83808;SHT31;73824;40.292;17.998;2024-03-02T04:17:30;11.52;89.44
83808;SHT31;73824;40.292;17.998;2024-03-02T04:19:56;11.47;89.45
83808;SHT31;73824;40.292;17.998;2024-03-02T04:22:21;11.47;89.60
83808;SHT31;73824;40.292;17.998;2024-03-02T04:24:47;11.41;89.65
83808;SHT31;73824;40.292;17.998;2024-03-02T04:27:12;11.24;89.86
83808;SHT31;73824;40.292;17.998;2024-03-02T04:29:38;11.21;90.25
83808;SHT31;73824;40.292;17.998;2024-03-02T04:32:03;11.06;90.53
83808;SHT31;73824;40.292;17.998;2024-03-02T04:34:29;11.03;90.79
83808;SHT31;73824;40.292;17.998;2024-03-02T04:36:55;11.13;90.94
83808;SHT31;73824;40.292;17.998;2024-03-02T04:39:21;11.14;90.92
83808;SHT31;73824;40.292;17.998;2024-03-02T04:41:46;11.09;90.95
83808;SHT31;73824;40.292;17.998;2024-03-02T04:44:12;11.04;91.06
83808;SHT31;73824;40.292;17.998;2024-03-02T04:46:37;10.97;91.17
83808;SHT31;73824;40.292;17.998;2024-03-02T04:49:03;10.99;91.23
83808;SHT31;73824;40.292;17.998;2024-03-02T04:51:28;10.99;91.31
83808;SHT31;73824;40.292;17.998;2024-03-02T04:53:54;11.07;91.20
83808;SHT31;73824;40.292;17.998;2024-03-02T04:56:19;11.03;91.19
83808;SHT31;73824;40.292;17.998;2024-03-02T04:59:04;11.07;91.29
83808;SHT31;73824;40.292;17.998;2024-03-02T05:01:30;11.10;91.03
83808;SHT31;73824;40.292;17.998;2024-03-02T05:03:55;10.95;91.19
83808;SHT31;73824;40.292;17.998;2024-03-02T05:06:21;10.97;91.34
83808;SHT31;73824;40.292;17.998;2024-03-02T05:08:48;10.92;91.38
83808;SHT31;73824;40.292;17.998;2024-03-02T05:11:13;10.90;91.47
83808;SHT31;73824;40.292;17.998;2024-03-02T05:13:57;10.89;91.52
83808;SHT31;73824;40.292;17.998;2024-03-02T05:16:22;10.84;91.56
83808;SHT31;73824;40.292;17.998;2024-03-02T05:18:48;10.88;91.56
83808;SHT31;73824;40.292;17.998;2024-03-02T05:21:13;10.88;91.61
83808;SHT31;73824;40.292;17.998;2024-03-02T05:23:39;10.80;91.64
83808;SHT31;73824;40.292;17.998;2024-03-02T05:26:04;10.86;91.64
83808;SHT31;73824;40.292;17.998;2024-03-02T05:28:30;10.88;91.62
83808;SHT31;73824;40.292;17.998;2024-03-02T05:30:56;10.89;91.68
83808;SHT31;73824;40.292;17.998;2024-03-02T05:33:21;10.92;91.59
83808;SHT31;73824;40.292;17.998;2024-03-02T05:35:48;11.04;91.41
83808;SHT31;73824;40.292;17.998;2024-03-02T05:38:15;11.03;91.20
83808;SHT31;73824;40.292;17.998;2024-03-02T05:40:40;11.04;91.18
83808;SHT31;73824;40.292;17.998;2024-03-02T05:43:06;11.07;91.14
83808;SHT31;73824;40.292;17.998;2024-03-02T05:45:31;11.14;91.01
83808;SHT31;73824;40.292;17.998;2024-03-02T05:47:57;11.23;90.83
83808;SHT31;73824;40.292;17.998;2024-03-02T05:50:23;11.37;90.64
83808;SHT31;73824;40.292;17.998;2024-03-02T05:52:48;11.42;90.28
83808;SHT31;73824;40.292;17.998;2024-03-02T05:55:14;11.50;89.96
83808;SHT31;73824;40.292;17.998;2024-03-02T05:57:40;11.57;89.68
83808;SHT31;73824;40.292;17.998;2024-03-02T06:00:23;11.62;89.29
83808;SHT31;73824;40.292;17.998;2024-03-02T06:02:48;11.75;89.12
83808;SHT31;73824;40.292;17.998;2024-03-02T06:05:15;11.87;88.62
83808;SHT31;73824;40.292;17.998;2024-03-02T06:07:42;11.89;87.70
83808;SHT31;73824;40.292;17.998;2024-03-02T06:10:08;12.09;87.21
83808;SHT31;73824;40.292;17.998;2024-03-02T06:12:34;12.22;86.65
83808;SHT31;73824;40.292;17.998;2024-03-02T06:15:00;12.27;86.17
83808;SHT31;73824;40.292;17.998;2024-03-02T06:17:25;12.37;85.64
83808;SHT31;73824;40.292;17.998;2024-03-02T06:19:51;12.51;85.56
83808;SHT31;73824;40.292;17.998;2024-03-02T06:22:16;12.71;84.59
83808;SHT31;73824;40.292;17.998;2024-03-02T06:24:41;13.02;83.77
83808;SHT31;73824;40.292;17.998;2024-03-02T06:27:07;13.35;82.78
83808;SHT31;73824;40.292;17.998;2024-03-02T06:29:33;13.60;81.93
83808;SHT31;73824;40.292;17.998;2024-03-02T06:32:01;13.81;80.61
83808;SHT31;73824;40.292;17.998;2024-03-02T06:34:27;14.72;79.71
83808;SHT31;73824;40.292;17.998;2024-03-02T06:36:52;16.06;77.71
83808;SHT31;73824;40.292;17.998;2024-03-02T06:39:18;17.12;70.62
83808;SHT31;73824;40.292;17.998;2024-03-02T06:41:43;17.95;67.22
83808;SHT31;73824;40.292;17.998;2024-03-02T06:44:09;20.22;61.35
83808;SHT31;73824;40.292;17.998;2024-03-02T06:46:34;22.40;54.46
83808;SHT31;73824;40.292;17.998;2024-03-02T06:49:00;24.19;46.86
83808;SHT31;73824;40.292;17.998;2024-03-02T06:51:27;24.91;43.42
83808;SHT31;73824;40.292;17.998;2024-03-02T06:53:53;25.46;43.44
83808;SHT31;73824;40.292;17.998;2024-03-02T06:56:18;26.32;40.68
83808;SHT31;73824;40.292;17.998;2024-03-02T06:58:44;27.35;41.34
83808;SHT31;73824;40.292;17.998;2024-03-02T07:01:09;26.71;39.89
83808;SHT31;73824;40.292;17.998;2024-03-02T07:03:35;27.59;39.75
83808;SHT31;73824;40.292;17.998;2024-03-02T07:06:00;28.26;36.79
83808;SHT31;73824;40.292;17.998;2024-03-02T07:08:26;28.30;38.77
83808;SHT31;73824;40.292;17.998;2024-03-02T07:10:51;27.69;39.26
83808;SHT31;73824;40.292;17.998;2024-03-02T07:13:17;27.62;40.12
83808;SHT31;73824;40.292;17.998;2024-03-02T07:15:42;28.75;38.46
83808;SHT31;73824;40.292;17.998;2024-03-02T07:18:26;29.09;37.88
83808;SHT31;73824;40.292;17.998;2024-03-02T07:20:52;29.04;38.02
83808;SHT31;73824;40.292;17.998;2024-03-02T07:23:17;29.78;37.21
83808;SHT31;73824;40.292;17.998;2024-03-02T07:25:43;30.51;34.82
83808;SHT31;73824;40.292;17.998;2024-03-02T07:28:08;30.18;36.52
83808;SHT31;73824;40.292;17.998;2024-03-02T07:30:34;30.52;35.04
83808;SHT31;73824;40.292;17.998;2024-03-02T07:33:00;30.82;34.10
83808;SHT31;73824;40.292;17.998;2024-03-02T07:35:25;28.91;37.88
83808;SHT31;73824;40.292;17.998;2024-03-02T07:37:56;26.56;39.88
83808;SHT31;73824;40.292;17.998;2024-03-02T07:40:23;22.92;49.65
83808;SHT31;73824;40.292;17.998;2024-03-02T07:42:48;22.38;53.43
83808;SHT31;73824;40.292;17.998;2024-03-02T07:45:14;22.01;52.70
83808;SHT31;73824;40.292;17.998;2024-03-02T07:47:40;22.20;54.36
83808;SHT31;73824;40.292;17.998;2024-03-02T07:50:06;24.68;47.06
83808;SHT31;73824;40.292;17.998;2024-03-02T07:52:32;26.11;43.66
83808;SHT31;73824;40.292;17.998;2024-03-02T07:54:58;27.66;40.40
83808;SHT31;73824;40.292;17.998;2024-03-02T07:57:26;28.36;38.65
83808;SHT31;73824;40.292;17.998;2024-03-02T07:59:52;26.99;41.22
83808;SHT31;73824;40.292;17.998;2024-03-02T08:02:17;27.00;40.16
83808;SHT31;73824;40.292;17.998;2024-03-02T08:04:43;27.72;38.68
83808;SHT31;73824;40.292;17.998;2024-03-02T08:07:09;27.34;40.00
83808;SHT31;73824;40.292;17.998;2024-03-02T08:09:34;27.29;40.49
83808;SHT31;73824;40.292;17.998;2024-03-02T08:12:00;28.23;38.88
83808;SHT31;73824;40.292;17.998;2024-03-02T08:14:25;29.02;36.59
83808;SHT31;73824;40.292;17.998;2024-03-02T08:16:51;30.05;34.03
83808;SHT31;73824;40.292;17.998;2024-03-02T08:19:17;29.16;35.71
83808;SHT31;73824;40.292;17.998;2024-03-02T08:21:43;28.64;36.38
83808;SHT31;73824;40.292;17.998;2024-03-02T08:24:08;28.64;36.31
83808;SHT31;73824;40.292;17.998;2024-03-02T08:26:34;28.70;36.97
83808;SHT31;73824;40.292;17.998;2024-03-02T08:29:00;28.51;36.51
83808;SHT31;73824;40.292;17.998;2024-03-02T08:31:29;28.92;36.09
83808;SHT31;73824;40.292;17.998;2024-03-02T08:33:55;29.16;35.90
83808;SHT31;73824;40.292;17.998;2024-03-02T08:36:22;27.10;38.74
83808;SHT31;73824;40.292;17.998;2024-03-02T08:38:49;25.19;42.64
83808;SHT31;73824;40.292;17.998;2024-03-02T08:41:15;25.47;42.29
83808;SHT31;73824;40.292;17.998;2024-03-02T08:43:41;24.35;44.45
83808;SHT31;73824;40.292;17.998;2024-03-02T08:46:07;25.87;41.80
83808;SHT31;73824;40.292;17.998;2024-03-02T08:48:33;24.61;44.19
83808;SHT31;73824;40.292;17.998;2024-03-02T08:50:58;24.57;44.75
83808;SHT31;73824;40.292;17.998;2024-03-02T08:53:24;24.80;44.09
83808;SHT31;73824;40.292;17.998;2024-03-02T08:55:49;26.69;40.07
83808;SHT31;73824;40.292;17.998;2024-03-02T08:58:15;27.04;39.15
83808;SHT31;73824;40.292;17.998;2024-03-02T09:00:41;27.86;38.71
83808;SHT31;73824;40.292;17.998;2024-03-02T09:03:07;27.92;40.05
83808;SHT31;73824;40.292;17.998;2024-03-02T09:05:33;25.18;43.72
83808;SHT31;73824;40.292;17.998;2024-03-02T09:07:58;26.10;42.62
83808;SHT31;73824;40.292;17.998;2024-03-02T09:10:24;26.73;41.48
83808;SHT31;73824;40.292;17.998;2024-03-02T09:12:49;24.11;47.01
83808;SHT31;73824;40.292;17.998;2024-03-02T09:15:15;25.31;42.47
83808;SHT31;73824;40.292;17.998;2024-03-02T09:17:41;24.16;45.43
83808;SHT31;73824;40.292;17.998;2024-03-02T09:20:07;24.88;44.16
83808;SHT31;73824;40.292;17.998;2024-03-02T09:22:32;23.98;45.38
83808;SHT31;73824;40.292;17.998;2024-03-02T09:24:58;24.32;45.11
83808;SHT31;73824;40.292;17.998;2024-03-02T09:27:24;24.74;44.36
83808;SHT31;73824;40.292;17.998;2024-03-02T09:29:49;25.38;42.93
83808;SHT31;73824;40.292;17.998;2024-03-02T09:32:15;24.70;45.15
83808;SHT31;73824;40.292;17.998;2024-03-02T09:34:41;23.82;45.37
83808;SHT31;73824;40.292;17.998;2024-03-02T09:37:06;22.24;48.95
83808;SHT31;73824;40.292;17.998;2024-03-02T09:39:33;21.93;51.54
83808;SHT31;73824;40.292;17.998;2024-03-02T09:41:59;22.78;48.47
83808;SHT31;73824;40.292;17.998;2024-03-02T09:44:25;24.26;45.20
83808;SHT31;73824;40.292;17.998;2024-03-02T09:46:51;25.59;42.14
83808;SHT31;73824;40.292;17.998;2024-03-02T09:49:17;24.23;44.15
83808;SHT31;73824;40.292;17.998;2024-03-02T09:51:47;24.83;40.98
83808;SHT31;73824;40.292;17.998;2024-03-02T09:54:15;24.44;45.24
83808;SHT31;73824;40.292;17.998;2024-03-02T09:56:41;25.52;40.94
83808;SHT31;73824;40.292;17.998;2024-03-02T09:59:06;25.70;40.95
83808;SHT31;73824;40.292;17.998;2024-03-02T10:01:32;26.28;39.16
83808;SHT31;73824;40.292;17.998;2024-03-02T10:04:01;25.15;40.91
83808;SHT31;73824;40.292;17.998;2024-03-02T10:06:28;24.40;42.45
83808;SHT31;73824;40.292;17.998;2024-03-02T10:08:54;26.28;39.49
83808;SHT31;73824;40.292;17.998;2024-03-02T10:11:30;25.87;39.30
83808;SHT31;73824;40.292;17.998;2024-03-02T10:16:38;23.78;40.40
83808;SHT31;73824;40.292;17.998;2024-03-02T10:19:23;21.96;44.58
83808;SHT31;73824;40.292;17.998;2024-03-02T10:21:55;21.59;46.94
83808;SHT31;73824;40.292;17.998;2024-03-02T10:24:22;21.15;48.00
83808;SHT31;73824;40.292;17.998;2024-03-02T10:26:48;19.74;50.05
83808;SHT31;73824;40.292;17.998;2024-03-02T10:29:14;20.12;51.10
83808;SHT31;73824;40.292;17.998;2024-03-02T10:31:41;19.91;52.79
83808;SHT31;73824;40.292;17.998;2024-03-02T10:34:08;19.53;54.24
83808;SHT31;73824;40.292;17.998;2024-03-02T10:36:35;19.57;52.42
83808;SHT31;73824;40.292;17.998;2024-03-02T10:39:05;19.64;51.82
83808;SHT31;73824;40.292;17.998;2024-03-02T10:41:35;19.61;52.38
83808;SHT31;73824;40.292;17.998;2024-03-02T10:44:06;19.95;51.92
83808;SHT31;73824;40.292;17.998;2024-03-02T10:46:34;19.27;52.01
83808;SHT31;73824;40.292;17.998;2024-03-02T10:49:02;20.07;52.11
83808;SHT31;73824;40.292;17.998;2024-03-02T10:51:34;21.14;49.91
83808;SHT31;73824;40.292;17.998;2024-03-02T10:54:02;21.39;48.53
83808;SHT31;73824;40.292;17.998;2024-03-02T10:56:38;22.91;46.43
83808;SHT31;73824;40.292;17.998;2024-03-02T11:01:55;23.34;44.38
83808;SHT31;73824;40.292;17.998;2024-03-02T11:04:24;23.05;43.77
83808;SHT31;73824;40.292;17.998;2024-03-02T11:06:50;22.94;44.69
83808;SHT31;73824;40.292;17.998;2024-03-02T11:09:19;22.94;45.71
83808;SHT31;73824;40.292;17.998;2024-03-02T11:11:52;23.28;43.85
83808;SHT31;73824;40.292;17.998;2024-03-02T11:14:21;23.95;42.25
83808;SHT31;73824;40.292;17.998;2024-03-02T11:16:49;23.77;42.84
83808;SHT31;73824;40.292;17.998;2024-03-02T11:19:16;23.89;42.27
83808;SHT31;73824;40.292;17.998;2024-03-02T11:21:42;24.29;40.06
83808;SHT31;73824;40.292;17.998;2024-03-02T11:26:51;22.85;41.29
83808;SHT31;73824;40.292;17.998;2024-03-02T11:32:02;22.14;44.81
83808;SHT31;73824;40.292;17.998;2024-03-02T11:34:35;22.43;45.53
83808;SHT31;73824;40.292;17.998;2024-03-02T11:37:02;22.58;45.02
83808;SHT31;73824;40.292;17.998;2024-03-02T11:39:28;22.30;44.81
83808;SHT31;73824;40.292;17.998;2024-03-02T11:41:55;22.16;44.36
83808;SHT31;73824;40.292;17.998;2024-03-02T11:44:21;22.09;45.05
83808;SHT31;73824;40.292;17.998;2024-03-02T11:46:52;22.44;44.30
83808;SHT31;73824;40.292;17.998;2024-03-02T11:52:02;21.46;47.35
83808;SHT31;73824;40.292;17.998;2024-03-02T11:54:32;21.76;46.89
83808;SHT31;73824;40.292;17.998;2024-03-02T11:57:01;21.14;46.98
83808;SHT31;73824;40.292;17.998;2024-03-02T11:59:28;21.53;46.97
83808;SHT31;73824;40.292;17.998;2024-03-02T12:01:54;21.52;45.70
83808;SHT31;73824;40.292;17.998;2024-03-02T12:04:21;20.30;48.38
83808;SHT31;73824;40.292;17.998;2024-03-02T12:06:48;19.92;48.75
83808;SHT31;73824;40.292;17.998;2024-03-02T12:09:20;19.74;49.09
83808;SHT31;73824;40.292;17.998;2024-03-02T12:11:46;19.92;50.74
83808;SHT31;73824;40.292;17.998;2024-03-02T12:14:12;20.14;49.38
83808;SHT31;73824;40.292;17.998;2024-03-02T12:16:44;19.97;50.45
83808;SHT31;73824;40.292;17.998;2024-03-02T12:19:10;20.11;50.65
83808;SHT31;73824;40.292;17.998;2024-03-02T12:21:35;20.50;50.33
83808;SHT31;73824;40.292;17.998;2024-03-02T12:24:02;20.52;50.88
83808;SHT31;73824;40.292;17.998;2024-03-02T12:26:28;20.09;49.56
83808;SHT31;73824;40.292;17.998;2024-03-02T12:28:54;20.19;48.70
83808;SHT31;73824;40.292;17.998;2024-03-02T12:31:20;19.97;49.15
83808;SHT31;73824;40.292;17.998;2024-03-02T12:33:46;19.88;50.06
83808;SHT31;73824;40.292;17.998;2024-03-02T12:36:13;19.75;51.00
83808;SHT31;73824;40.292;17.998;2024-03-02T12:38:43;19.47;51.61
83808;SHT31;73824;40.292;17.998;2024-03-02T12:41:09;19.46;50.78
83808;SHT31;73824;40.292;17.998;2024-03-02T12:43:34;19.42;53.26
83808;SHT31;73824;40.292;17.998;2024-03-02T12:46:00;18.95;53.03
83808;SHT31;73824;40.292;17.998;2024-03-02T12:48:25;18.63;53.88
83808;SHT31;73824;40.292;17.998;2024-03-02T12:50:51;18.57;51.54
83808;SHT31;73824;40.292;17.998;2024-03-02T12:53:17;18.74;53.14
83808;SHT31;73824;40.292;17.998;2024-03-02T12:55:43;18.77;53.49
83808;SHT31;73824;40.292;17.998;2024-03-02T12:58:22;18.72;54.04
83808;SHT31;73824;40.292;17.998;2024-03-02T13:00:48;18.74;51.60
83808;SHT31;73824;40.292;17.998;2024-03-02T13:03:13;18.61;52.23
83808;SHT31;73824;40.292;17.998;2024-03-02T13:05:39;18.19;53.04
83808;SHT31;73824;40.292;17.998;2024-03-02T13:08:06;17.79;51.68
83808;SHT31;73824;40.292;17.998;2024-03-02T13:10:32;18.03;51.85
83808;SHT31;73824;40.292;17.998;2024-03-02T13:12:58;18.14;50.75
83808;SHT31;73824;40.292;17.998;2024-03-02T13:15:26;18.32;49.71
83808;SHT31;73824;40.292;17.998;2024-03-02T13:17:52;18.48;50.63
83808;SHT31;73824;40.292;17.998;2024-03-02T13:20:17;18.99;49.24
83808;SHT31;73824;40.292;17.998;2024-03-02T13:22:44;18.98;48.35
83808;SHT31;73824;40.292;17.998;2024-03-02T13:25:09;18.92;49.03
83808;SHT31;73824;40.292;17.998;2024-03-02T13:27:36;18.56;50.15
83808;SHT31;73824;40.292;17.998;2024-03-02T13:30:03;18.53;51.08
83808;SHT31;73824;40.292;17.998;2024-03-02T13:32:31;18.74;49.59
83808;SHT31;73824;40.292;17.998;2024-03-02T13:34:56;18.78;49.72
83808;SHT31;73824;40.292;17.998;2024-03-02T13:37:22;18.83;49.32
83808;SHT31;73824;40.292;17.998;2024-03-02T13:39:48;18.96;49.13
83808;SHT31;73824;40.292;17.998;2024-03-02T13:42:13;18.83;48.95
83808;SHT31;73824;40.292;17.998;2024-03-02T13:44:41;18.99;48.64
83808;SHT31;73824;40.292;17.998;2024-03-02T13:47:09;19.26;48.17
83808;SHT31;73824;40.292;17.998;2024-03-02T13:49:34;19.05;48.80
83808;SHT31;73824;40.292;17.998;2024-03-02T13:52:06;18.88;48.08
83808;SHT31;73824;40.292;17.998;2024-03-02T13:54:37;18.96;49.22
83808;SHT31;73824;40.292;17.998;2024-03-02T13:57:03;19.27;48.58
83808;SHT31;73824;40.292;17.998;2024-03-02T13:59:29;19.19;46.18
83808;SHT31;73824;40.292;17.998;2024-03-02T14:01:54;19.29;47.10
83808;SHT31;73824;40.292;17.998;2024-03-02T14:04:20;19.09;45.65
83808;SHT31;73824;40.292;17.998;2024-03-02T14:06:48;19.15;47.87
83808;SHT31;73824;40.292;17.998;2024-03-02T14:09:14;19.27;47.16
83808;SHT31;73824;40.292;17.998;2024-03-02T14:11:40;19.22;48.95
83808;SHT31;73824;40.292;17.998;2024-03-02T14:14:05;19.33;49.33
83808;SHT31;73824;40.292;17.998;2024-03-02T14:16:31;19.34;49.30
83808;SHT31;73824;40.292;17.998;2024-03-02T14:18:56;19.34;48.26
83808;SHT31;73824;40.292;17.998;2024-03-02T14:21:22;19.01;49.11
83808;SHT31;73824;40.292;17.998;2024-03-02T14:23:47;19.11;49.52
83808;SHT31;73824;40.292;17.998;2024-03-02T14:26:13;19.32;48.84
83808;SHT31;73824;40.292;17.998;2024-03-02T14:28:38;19.27;49.22
83808;SHT31;73824;40.292;17.998;2024-03-02T14:31:04;19.12;50.28
83808;SHT31;73824;40.292;17.998;2024-03-02T14:33:29;18.79;48.69
83808;SHT31;73824;40.292;17.998;2024-03-02T14:35:55;18.79;46.80
83808;SHT31;73824;40.292;17.998;2024-03-02T14:38:21;18.87;47.18
83808;SHT31;73824;40.292;17.998;2024-03-02T14:40:47;18.95;47.45
83808;SHT31;73824;40.292;17.998;2024-03-02T14:43:12;18.98;46.62
83808;SHT31;73824;40.292;17.998;2024-03-02T14:45:38;18.98;47.20
83808;SHT31;73824;40.292;17.998;2024-03-02T14:48:04;19.11;47.71
83808;SHT31;73824;40.292;17.998;2024-03-02T14:50:30;19.26;47.70
83808;SHT31;73824;40.292;17.998;2024-03-02T14:52:55;19.11;48.70
83808;SHT31;73824;40.292;17.998;2024-03-02T14:55:23;19.12;49.18
83808;SHT31;73824;40.292;17.998;2024-03-02T14:57:49;18.88;51.15
83808;SHT31;73824;40.292;17.998;2024-03-02T15:00:15;18.53;53.01
83808;SHT31;73824;40.292;17.998;2024-03-02T15:02:41;18.57;53.38
83808;SHT31;73824;40.292;17.998;2024-03-02T15:05:07;18.46;53.07
83808;SHT31;73824;40.292;17.998;2024-03-02T15:07:32;18.34;52.65
83808;SHT31;73824;40.292;17.998;2024-03-02T15:09:58;18.27;52.11
83808;SHT31;73824;40.292;17.998;2024-03-02T15:12:24;18.43;51.03
83808;SHT31;73824;40.292;17.998;2024-03-02T15:14:49;18.20;51.39
83808;SHT31;73824;40.292;17.998;2024-03-02T15:17:15;18.13;51.13
83808;SHT31;73824;40.292;17.998;2024-03-02T15:19:44;18.10;53.00
83808;SHT31;73824;40.292;17.998;2024-03-02T15:22:11;18.05;54.37
83808;SHT31;73824;40.292;17.998;2024-03-02T15:24:37;17.81;55.84
83808;SHT31;73824;40.292;17.998;2024-03-02T15:27:03;17.78;56.27
83808;SHT31;73824;40.292;17.998;2024-03-02T15:29:34;17.81;55.97